createdAt,value
2022-10-03T00:02:12.452Z,80.04
2022-10-03T00:04:39.566Z,79.63
2022-10-03T00:07:45.538Z,79.31
2022-10-03T00:10:22.758Z,79.12
2022-10-03T00:12:53.438Z,79.56
2022-10-03T00:15:32.813Z,80.00
2022-10-03T00:18:31.781Z,80.28
2022-10-03T00:21:31.095Z,79.90
2022-10-03T00:24:26.292Z,80.00
2022-10-03T00:27:03.378Z,79.78
2022-10-03T00:29:39.344Z,80.51
2022-10-03T00:32:30.484Z,79.93
2022-10-03T00:35:02.824Z,80.19
2022-10-03T00:37:30.196Z,80.27
2022-10-03T00:40:35.185Z,81.20
2022-10-03T00:43:05.550Z,80.17
2022-10-03T00:46:01.475Z,79.93
2022-10-03T00:48:48.336Z,80.83
2022-10-03T00:51:45.024Z,81.03
2022-10-03T00:54:32.169Z,82.48
2022-10-03T00:57:36.253Z,80.57
2022-10-03T01:00:16.316Z,80.48
2022-10-03T01:02:47.443Z,80.91
2022-10-03T01:05:29.690Z,81.32
2022-10-03T01:08:17.629Z,81.57
2022-10-03T01:11:00.485Z,80.86
2022-10-03T01:13:46.355Z,82.18
2022-10-03T01:16:38.014Z,82.55
2022-10-03T01:19:49.474Z,82.55
2022-10-03T01:22:41.150Z,81.89
2022-10-03T01:25:10.819Z,81.95
2022-10-03T01:28:17.642Z,83.07
2022-10-03T01:30:51.947Z,82.50
2022-10-03T01:33:27.989Z,81.51
2022-10-03T01:36:03.335Z,81.70
2022-10-03T01:39:17.685Z,82.01
2022-10-03T01:41:59.250Z,81.93
2022-10-03T01:44:44.515Z,82.42
2022-10-03T01:47:29.898Z,82.16
2022-10-03T01:50:05.182Z,82.40
2022-10-03T01:52:49.874Z,82.04
2022-10-03T01:55:44.903Z,83.56
2022-10-03T01:58:18.094Z,82.24
2022-10-03T02:00:58.750Z,82.84
2022-10-03T02:03:36.425Z,82.71
2022-10-03T02:06:11.375Z,82.19
2022-10-03T02:08:41.016Z,82.16
2022-10-03T02:11:11.239Z,82.46
2022-10-03T02:13:44.452Z,82.08
2022-10-03T02:16:29.577Z,82.56
2022-10-03T02:19:11.448Z,82.39
2022-10-03T02:21:55.399Z,83.10
2022-10-03T02:24:45.517Z,83.17
2022-10-03T02:27:24.719Z,82.65
2022-10-03T02:30:16.482Z,82.92
2022-10-03T02:32:46.173Z,82.82
2022-10-03T02:35:31.768Z,83.14
2022-10-03T02:38:36.279Z,83.31
2022-10-03T02:41:23.205Z,82.93
2022-10-03T02:44:01.429Z,82.50
2022-10-03T02:46:47.320Z,82.98
2022-10-03T02:49:51.804Z,83.70
2022-10-03T02:52:42.668Z,83.23
2022-10-03T02:55:50.006Z,82.37
2022-10-03T02:58:29.167Z,82.84
2022-10-03T03:01:17.790Z,82.81
2022-10-03T03:03:53.769Z,82.63
2022-10-03T03:06:35.907Z,82.62
2022-10-03T03:09:27.239Z,82.57
2022-10-03T03:12:02.098Z,82.82
2022-10-03T03:14:29.430Z,82.49
2022-10-03T03:17:15.240Z,82.49
2022-10-03T03:20:16.526Z,83.25
2022-10-03T03:23:03.044Z,82.77
2022-10-03T03:25:42.309Z,82.63
2022-10-03T03:28:21.270Z,82.61
2022-10-03T03:30:52.553Z,82.45
2022-10-03T03:33:31.960Z,82.14
2022-10-03T03:36:05.943Z,82.11
2022-10-03T03:38:46.559Z,82.48
2022-10-03T03:41:31.672Z,81.93
2022-10-03T03:44:36.157Z,82.55
2022-10-03T03:47:09.081Z,82.05
2022-10-03T03:50:06.650Z,82.17
2022-10-03T03:53:07.688Z,82.46
2022-10-03T03:55:50.919Z,82.59
2022-10-03T03:58:26.906Z,82.48
2022-10-03T04:00:56.937Z,82.34
2022-10-03T04:03:54.111Z,82.37
2022-10-03T04:06:34.792Z,82.40
2022-10-03T04:09:07.855Z,82.85
2022-10-03T04:11:49.941Z,83.21
2022-10-03T04:14:22.904Z,83.46
2022-10-03T04:17:19.310Z,83.43
2022-10-03T04:20:11.309Z,83.12
2022-10-03T04:23:01.756Z,82.75
2022-10-03T04:26:00.790Z,83.87
2022-10-03T04:28:45.417Z,82.87
2022-10-03T04:31:20.735Z,83.00
2022-10-03T04:34:28.382Z,82.71
2022-10-03T04:37:18.824Z,82.58
2022-10-03T04:39:55.100Z,82.48
2022-10-03T04:42:42.395Z,82.10
2022-10-03T04:45:53.941Z,82.52
2022-10-03T04:48:45.803Z,82.13
2022-10-03T04:51:16.181Z,81.77
2022-10-03T04:53:57.718Z,81.70
2022-10-03T04:56:53.474Z,81.40
2022-10-03T04:59:38.310Z,81.45
2022-10-03T05:02:08.312Z,81.34
2022-10-03T05:05:03.220Z,81.81
2022-10-03T05:07:41.659Z,81.47
2022-10-03T05:10:44.830Z,81.46
2022-10-03T05:13:20.032Z,81.32
2022-10-03T05:16:14.898Z,81.20
2022-10-03T05:18:50.535Z,81.01
2022-10-03T05:21:20.600Z,80.95
2022-10-03T05:24:19.287Z,80.65
2022-10-03T05:27:39.639Z,80.43
2022-10-03T05:30:15.853Z,80.97
2022-10-03T05:33:12.950Z,80.66
2022-10-03T05:35:51.260Z,80.87
2022-10-03T05:38:34.416Z,80.41
2022-10-03T05:41:11.720Z,80.39
2022-10-03T05:44:02.150Z,80.22
2022-10-03T05:46:52.480Z,79.95
2022-10-03T05:49:40.688Z,80.01
2022-10-03T05:52:37.393Z,79.81
2022-10-03T05:55:13.210Z,79.72
2022-10-03T05:58:12.984Z,79.54
2022-10-03T06:00:50.307Z,79.11
2022-10-03T06:03:52.517Z,79.16
2022-10-03T06:06:41.199Z,78.99
2022-10-03T06:09:22.782Z,78.96
2022-10-03T06:12:28.302Z,78.93
2022-10-03T06:15:13.125Z,78.38
2022-10-03T06:18:01.684Z,77.98
2022-10-03T06:20:41.036Z,78.38
2022-10-03T06:23:52.550Z,77.85
2022-10-03T06:26:45.389Z,78.00
2022-10-03T06:29:27.449Z,78.05
2022-10-03T06:32:26.494Z,78.00
2022-10-03T06:35:15.890Z,78.88
2022-10-03T06:38:00.860Z,78.23
2022-10-03T06:41:06.061Z,77.96
2022-10-03T06:43:51.403Z,78.11
2022-10-03T06:46:45.871Z,78.21
2022-10-03T06:49:27.595Z,77.79
2022-10-03T06:52:03.137Z,77.68
2022-10-03T06:55:14.018Z,77.37
2022-10-03T06:57:46.992Z,77.57
2022-10-03T07:00:17.056Z,77.36
2022-10-03T07:03:06.346Z,77.20
2022-10-03T07:05:51.751Z,77.12
2022-10-03T07:08:59.927Z,77.14
2022-10-03T07:11:44.736Z,77.11
2022-10-03T07:14:35.482Z,77.09
2022-10-03T07:17:03.284Z,77.34
2022-10-03T07:19:30.336Z,77.83
2022-10-03T07:22:16.595Z,77.77
2022-10-03T07:25:09.580Z,77.75
2022-10-03T07:27:59.148Z,77.52
2022-10-03T07:30:46.771Z,77.39
2022-10-03T07:33:39.154Z,77.24
2022-10-03T07:36:49.908Z,77.13
2022-10-03T07:39:54.086Z,76.92
2022-10-03T07:42:33.859Z,77.71
2022-10-03T07:45:30.445Z,78.02
2022-10-03T07:48:09.369Z,77.91
2022-10-03T07:50:36.355Z,77.45
2022-10-03T07:53:29.332Z,77.53
2022-10-03T07:56:21.291Z,77.58
2022-10-03T07:59:17.370Z,78.08
2022-10-03T08:01:47.470Z,77.38
2022-10-03T08:04:28.248Z,77.72
2022-10-03T08:07:04.572Z,77.80
2022-10-03T08:09:46.601Z,77.95
2022-10-03T08:12:32.659Z,77.65
2022-10-03T08:15:10.921Z,77.73
2022-10-03T08:18:01.812Z,77.79
2022-10-03T08:20:39.127Z,77.53
2022-10-03T08:23:30.433Z,77.79
2022-10-03T08:26:20.507Z,77.82
2022-10-03T08:29:35.096Z,78.17
2022-10-03T08:32:39.478Z,78.41
2022-10-03T08:35:25.029Z,77.74
2022-10-03T08:38:12.954Z,77.87
2022-10-03T08:41:19.025Z,77.89
2022-10-03T08:44:07.342Z,77.77
2022-10-03T08:47:11.740Z,77.71
2022-10-03T08:49:51.895Z,77.60
2022-10-03T08:52:40.010Z,77.23
2022-10-03T08:55:31.180Z,77.59
2022-10-03T08:58:19.808Z,77.00
2022-10-03T09:01:00.366Z,76.87
2022-10-03T09:03:49.192Z,76.84
2022-10-03T09:07:05.145Z,76.38
2022-10-03T09:09:39.906Z,76.60
2022-10-03T09:12:42.775Z,76.50
2022-10-03T09:15:25.245Z,76.45
2022-10-03T09:18:05.508Z,76.76
2022-10-03T09:21:20.798Z,76.65
2022-10-03T09:24:15.717Z,76.80
2022-10-03T09:27:33.573Z,76.45
2022-10-03T09:30:29.314Z,76.53
2022-10-03T09:32:56.374Z,76.63
2022-10-03T09:35:50.473Z,76.76
2022-10-03T09:38:38.859Z,76.61
2022-10-03T09:41:31.485Z,76.36
2022-10-03T09:44:20.142Z,76.78
2022-10-03T09:47:23.954Z,76.65
2022-10-03T09:50:21.554Z,76.90
2022-10-03T09:53:32.938Z,76.64
2022-10-03T09:56:27.941Z,76.34
2022-10-03T09:59:13.472Z,76.69
2022-10-03T10:01:46.533Z,76.10
2022-10-03T10:04:57.855Z,76.27
2022-10-03T10:08:20.977Z,76.60
2022-10-03T10:11:25.359Z,76.40
2022-10-03T10:14:11.006Z,76.34
2022-10-03T10:16:45.737Z,75.98
2022-10-03T10:19:32.882Z,76.26
2022-10-03T10:22:11.881Z,76.15
2022-10-03T10:25:06.915Z,76.60
2022-10-03T10:27:33.904Z,76.83
2022-10-03T10:30:15.587Z,76.95
2022-10-03T10:33:39.786Z,76.91
2022-10-03T10:36:28.369Z,76.39
2022-10-03T10:39:18.351Z,76.36
2022-10-03T10:42:39.291Z,76.22
2022-10-03T10:45:39.293Z,76.29
2022-10-03T10:48:39.687Z,76.13
2022-10-03T10:51:16.214Z,75.57
2022-10-03T10:54:20.247Z,74.98
2022-10-03T10:57:29.820Z,75.20
2022-10-03T11:00:19.360Z,75.16
2022-10-03T11:03:10.698Z,75.31
2022-10-03T11:06:00.791Z,74.82
2022-10-03T11:08:52.619Z,75.05
2022-10-03T11:11:44.475Z,74.87
2022-10-03T11:14:14.375Z,74.72
2022-10-03T11:17:18.780Z,74.93
2022-10-03T11:20:23.508Z,75.08
2022-10-03T11:23:09.613Z,74.17
2022-10-03T11:26:01.259Z,73.59
2022-10-03T11:28:46.968Z,74.48
2022-10-03T11:31:20.141Z,74.38
2022-10-03T11:34:09.115Z,73.80
2022-10-03T11:37:06.100Z,74.11
2022-10-03T11:39:54.137Z,74.11
2022-10-03T11:42:40.825Z,73.17
2022-10-03T11:45:24.762Z,72.04
2022-10-03T11:48:23.766Z,73.29
2022-10-03T11:50:54.035Z,72.23
2022-10-03T11:53:36.344Z,73.04
2022-10-03T11:56:06.701Z,72.30
2022-10-03T11:59:02.366Z,72.29
2022-10-03T12:01:48.646Z,71.93
2022-10-03T12:04:46.533Z,69.47
2022-10-03T12:07:53.065Z,69.43
2022-10-03T12:10:43.447Z,69.14
2022-10-03T12:13:17.696Z,67.23
2022-10-03T12:15:51.855Z,66.70
2022-10-03T12:18:30.549Z,65.26
2022-10-03T12:21:23.122Z,65.69
2022-10-03T12:24:25.540Z,66.55
2022-10-03T12:27:13.907Z,65.24
2022-10-03T12:29:46.122Z,65.06
2022-10-03T12:32:45.549Z,65.84
2022-10-03T12:35:35.073Z,64.65
2022-10-03T12:38:20.974Z,61.93
2022-10-03T12:41:20.368Z,63.74
2022-10-03T12:44:16.891Z,62.11
2022-10-03T12:46:57.806Z,62.49
2022-10-03T12:49:40.136Z,62.07
2022-10-03T12:52:20.738Z,60.55
2022-10-03T12:55:00.239Z,61.78
2022-10-03T12:58:14.974Z,62.53
2022-10-03T13:00:56.578Z,61.43
2022-10-03T13:04:05.846Z,61.31
2022-10-03T13:07:03.196Z,61.34
2022-10-03T13:09:49.965Z,58.51
2022-10-03T13:12:39.419Z,57.72
2022-10-03T13:15:47.567Z,57.65
2022-10-03T13:18:45.595Z,59.96
2022-10-03T13:25:02.910Z,58.44
2022-10-03T13:27:43.776Z,60.06
2022-10-03T13:30:17.560Z,59.34
2022-10-03T13:32:51.362Z,59.48
2022-10-03T13:35:48.755Z,58.32
2022-10-03T13:39:08.475Z,58.59
2022-10-03T13:42:08.679Z,55.61
2022-10-03T13:44:44.032Z,55.28
2022-10-03T13:47:24.550Z,57.30
2022-10-03T13:50:05.636Z,56.86
2022-10-03T13:52:55.460Z,56.92
2022-10-03T13:55:35.332Z,55.76
2022-10-03T13:58:12.007Z,56.41
2022-10-03T14:00:51.650Z,57.36
2022-10-03T14:03:31.840Z,56.44
2022-10-03T14:06:36.694Z,55.05
2022-10-03T14:09:17.312Z,56.23
2022-10-03T14:11:50.738Z,54.69
2022-10-03T14:18:06.411Z,55.25
2022-10-03T14:20:43.242Z,55.40
2022-10-03T14:23:37.115Z,56.05
2022-10-03T14:26:14.956Z,55.86
2022-10-03T14:28:42.039Z,55.38
2022-10-03T14:31:18.884Z,56.10
2022-10-03T14:33:52.411Z,56.32
2022-10-03T14:36:32.090Z,56.37
2022-10-03T14:39:29.156Z,56.54
2022-10-03T14:41:56.261Z,55.87
2022-10-03T14:44:37.800Z,55.96
2022-10-03T14:47:17.255Z,56.71
2022-10-03T14:50:00.047Z,56.96
2022-10-03T14:52:39.273Z,56.78
2022-10-03T14:55:18.641Z,57.01
2022-10-03T14:58:09.885Z,57.00
2022-10-03T15:00:43.839Z,57.33
2022-10-03T15:03:17.196Z,57.27
2022-10-03T15:06:19.297Z,57.64
2022-10-03T15:08:52.374Z,57.62
2022-10-03T15:11:27.601Z,57.72
2022-10-03T15:14:02.787Z,58.14
2022-10-03T15:16:34.945Z,58.15
2022-10-03T15:19:11.432Z,57.64
2022-10-03T15:21:44.110Z,58.54
2022-10-03T15:24:24.944Z,58.19
2022-10-03T15:26:59.774Z,58.50
2022-10-03T15:29:28.110Z,58.83
2022-10-03T15:31:58.169Z,58.51
2022-10-03T15:34:31.931Z,58.99
2022-10-03T15:37:11.009Z,59.10
2022-10-03T15:39:42.174Z,58.88
2022-10-03T15:42:09.269Z,59.19
2022-10-03T15:44:55.920Z,58.57
2022-10-03T15:47:32.386Z,59.36
2022-10-03T15:50:34.815Z,59.20
2022-10-03T15:53:35.712Z,59.89
2022-10-03T15:56:15.522Z,59.89
2022-10-03T15:58:50.470Z,60.67
2022-10-03T16:01:27.935Z,62.03
2022-10-03T16:04:02.567Z,61.68
2022-10-03T16:06:40.380Z,62.15
2022-10-03T16:09:22.730Z,63.06
2022-10-03T16:12:16.852Z,62.59
2022-10-03T16:14:57.812Z,63.15
2022-10-03T16:17:42.016Z,62.98
2022-10-03T16:20:17.753Z,62.79
2022-10-03T16:23:19.502Z,63.36
2022-10-03T16:25:58.828Z,64.81
2022-10-03T16:28:34.834Z,65.01
2022-10-03T16:31:35.183Z,64.80
2022-10-03T16:34:15.831Z,65.96
2022-10-03T16:36:48.402Z,65.52
2022-10-03T16:39:26.126Z,65.39
2022-10-03T16:41:55.538Z,66.04
2022-10-03T16:44:25.388Z,66.80
2022-10-03T16:46:57.742Z,67.09
2022-10-03T16:50:04.780Z,65.56
2022-10-03T16:52:44.135Z,66.05
2022-10-03T16:55:22.938Z,66.76
2022-10-03T16:57:52.784Z,66.41
2022-10-03T17:00:41.943Z,66.46
2022-10-03T17:03:19.782Z,67.76
2022-10-03T17:05:48.981Z,67.37
2022-10-03T17:08:40.743Z,66.84
2022-10-03T17:11:16.179Z,66.68
2022-10-03T17:13:47.392Z,66.47
2022-10-03T17:16:50.056Z,66.32
2022-10-03T17:19:41.100Z,66.46
2022-10-03T17:22:17.231Z,66.57
2022-10-03T17:25:08.629Z,67.05
2022-10-03T17:27:41.939Z,66.32
2022-10-03T17:30:35.732Z,66.26
2022-10-03T17:33:11.991Z,66.60
2022-10-03T17:35:55.088Z,66.30
2022-10-03T17:38:49.929Z,67.08
2022-10-03T17:41:43.735Z,66.98
2022-10-03T17:44:36.754Z,68.11
2022-10-03T17:47:23.041Z,67.74
2022-10-03T17:50:22.495Z,68.21
2022-10-03T17:52:53.141Z,68.02
2022-10-03T17:55:42.252Z,67.07
2022-10-03T17:58:17.230Z,68.21
2022-10-03T18:00:44.738Z,67.87
2022-10-03T18:03:33.358Z,68.11
2022-10-03T18:06:23.413Z,67.94
2022-10-03T18:08:52.523Z,67.90
2022-10-03T18:11:25.135Z,67.83
2022-10-03T18:14:01.907Z,67.46
2022-10-03T18:16:32.509Z,67.77
2022-10-03T18:19:10.659Z,67.63
2022-10-03T18:22:12.715Z,67.47
2022-10-03T18:24:52.228Z,67.49
2022-10-03T18:27:38.183Z,67.27
2022-10-03T18:30:32.714Z,67.45
2022-10-03T18:33:01.939Z,67.54
2022-10-03T18:35:38.122Z,67.42
2022-10-03T18:38:34.368Z,67.86
2022-10-03T18:41:05.186Z,67.77
2022-10-03T18:43:45.372Z,68.13
2022-10-03T18:46:30.409Z,68.79
2022-10-03T18:52:22.608Z,68.33
2022-10-03T18:55:21.544Z,67.94
2022-10-03T18:58:18.002Z,68.39
2022-10-03T19:01:25.433Z,68.31
2022-10-03T19:04:00.354Z,68.57
2022-10-03T19:06:36.127Z,67.67
2022-10-03T19:09:38.609Z,68.12
2022-10-03T19:12:20.666Z,67.45
2022-10-03T19:14:47.868Z,67.25
2022-10-03T19:18:10.004Z,67.50
2022-10-03T19:20:50.746Z,67.63
2022-10-03T19:23:34.270Z,67.80
2022-10-03T19:26:07.785Z,67.73
2022-10-03T19:28:44.629Z,67.44
2022-10-03T19:31:12.039Z,67.25
2022-10-03T19:33:45.361Z,66.87
2022-10-03T19:36:17.583Z,67.43
2022-10-03T19:38:47.832Z,67.08
2022-10-03T19:41:37.295Z,66.78
2022-10-03T19:44:19.813Z,66.73
2022-10-03T19:46:54.111Z,66.20
2022-10-03T19:49:46.685Z,66.30
2022-10-03T19:52:16.842Z,66.40
2022-10-03T19:54:45.378Z,66.35
2022-10-03T19:57:38.679Z,66.18
2022-10-03T20:00:16.059Z,66.38
2022-10-03T20:02:45.789Z,66.10
2022-10-03T20:05:54.860Z,66.11
2022-10-03T20:08:45.776Z,65.57
2022-10-03T20:11:41.522Z,65.25
2022-10-03T20:14:16.415Z,66.10
2022-10-03T20:16:48.202Z,65.51
2022-10-03T20:19:22.504Z,65.00
2022-10-03T20:21:57.026Z,65.32
2022-10-03T20:24:36.988Z,64.76
2022-10-03T20:27:21.087Z,65.02
2022-10-03T20:30:13.984Z,64.89
2022-10-03T20:32:46.055Z,65.05
2022-10-03T20:35:22.711Z,64.83
2022-10-03T20:38:13.555Z,64.70
2022-10-03T20:40:49.293Z,64.72
2022-10-03T20:43:20.024Z,64.29
2022-10-03T20:46:02.689Z,64.80
2022-10-03T20:48:34.948Z,64.11
2022-10-03T20:51:02.084Z,64.10
2022-10-03T20:53:31.706Z,63.93
2022-10-03T20:56:07.244Z,63.88
2022-10-03T20:58:41.493Z,63.90
2022-10-03T21:01:20.031Z,63.79
2022-10-03T21:04:14.797Z,63.11
2022-10-03T21:07:12.326Z,63.54
2022-10-03T21:09:54.079Z,63.58
2022-10-03T21:12:29.253Z,63.78
2022-10-03T21:15:26.793Z,64.03
2022-10-03T21:17:57.345Z,63.93
2022-10-03T21:20:32.166Z,64.20
2022-10-03T21:23:04.402Z,63.83
2022-10-03T21:25:37.823Z,63.84
2022-10-03T21:28:13.180Z,64.19
2022-10-03T21:30:59.230Z,64.32
2022-10-03T21:33:37.164Z,64.21
2022-10-03T21:36:13.127Z,64.51
2022-10-03T21:38:45.862Z,64.72
2022-10-03T21:41:29.659Z,64.46
2022-10-03T21:44:12.699Z,64.28
2022-10-03T21:46:56.813Z,64.37
2022-10-03T21:49:47.882Z,64.41
2022-10-03T21:52:25.396Z,64.29
2022-10-03T21:55:04.289Z,64.39
2022-10-03T21:57:55.514Z,64.52
2022-10-03T22:00:49.551Z,64.67
2022-10-03T22:03:25.851Z,64.65
2022-10-03T22:06:09.349Z,64.43
2022-10-03T22:08:38.454Z,64.27
2022-10-03T22:11:23.662Z,64.46
2022-10-03T22:14:09.402Z,64.32
2022-10-03T22:16:50.706Z,64.58
2022-10-03T22:19:33.037Z,64.33
2022-10-03T22:22:37.587Z,64.09
2022-10-03T22:25:26.908Z,64.21
2022-10-03T22:28:16.956Z,64.05
2022-10-03T22:31:20.405Z,63.92
2022-10-03T22:33:57.745Z,63.74
2022-10-03T22:36:25.346Z,63.93
2022-10-03T22:38:53.294Z,63.82
2022-10-03T22:41:28.256Z,63.87
2022-10-03T22:43:57.869Z,63.31
2022-10-03T22:46:29.588Z,63.69
2022-10-03T22:49:06.285Z,64.25
2022-10-03T22:51:35.858Z,63.44
2022-10-03T22:54:11.493Z,63.80
2022-10-03T22:56:46.803Z,63.69
2022-10-03T22:59:20.396Z,63.62
2022-10-03T23:01:51.846Z,63.14
2022-10-03T23:04:47.951Z,63.26
2022-10-03T23:07:24.544Z,63.44
2022-10-03T23:10:28.222Z,63.50
2022-10-03T23:13:07.411Z,63.61
2022-10-03T23:15:39.723Z,63.38
2022-10-03T23:18:34.685Z,63.60
2022-10-03T23:21:10.188Z,63.49
2022-10-03T23:23:59.443Z,63.18
2022-10-03T23:26:41.486Z,63.62
2022-10-03T23:29:14.569Z,63.88
2022-10-03T23:31:57.809Z,63.67
2022-10-03T23:34:36.874Z,64.47
2022-10-03T23:37:16.027Z,64.14
2022-10-03T23:39:55.174Z,64.46
2022-10-03T23:42:37.855Z,64.67
2022-10-03T23:45:09.820Z,64.22
2022-10-03T23:47:40.702Z,64.21
2022-10-03T23:50:09.364Z,63.95
2022-10-03T23:52:51.832Z,64.10
2022-10-03T23:55:24.572Z,64.14
2022-10-03T23:57:51.970Z,64.36
